Thunder radar more information blitzortung!


Radar de pluja more information rain snow radar


Visita la nostra xarxa de llocs de meteo:

Template documentation
and downloads

And another site



No particular awareness of the weather is required.    There are no Weather-warnings

Pagina Historial Weather Underground text

Diari Resum February 13, 2016 Unitats:  Mètric    Imperial   Tant
« Previous Dia
SegĂźent Dia »
Diari Setmana Mensual Anual Personalitzada
  Maxima: Minima: Media:
Temperatura: 22.2 °C 12.0 °C 19.1 °C
Punt de rosada: 11.6 °C 6.6 °C 8.7 °C
Humitat: 77 % 41 % 52 %
Wind Speed: 27.8 km/h 1.9 km/h 9.3 km/h
RĂ fegues de vent: 27.8 km/h - -
Vent:- - WSW
Pression baro: 1003.9 hPa 981.9 hPa -
Precipitacions: 3.0 mm    
Historical Graphs
 
 
Dades de taula per February 13, 2016
Temps Temperatura Punt de rosada Pression baro Vent Wind Speed RĂ fegues de vent Humitat Rainfall Rate (Hourly)
00:00 14.9 °C 10.1 °C 1003.9 hPa NW 1.9 km/h   73 % 0.0 mm
10:46 17.8 °C 11.6 °C 981.9 hPa WSW 5.6 km/h 5.6 km/h 67 % 0.0 mm
10:51 18.5 °C 11.6 °C 1002.9 hPa WSW 9.3 km/h 9.3 km/h 64 % 0.0 mm
10:56 18.6 °C 11.4 °C 1002.9 hPa WSW 9.3 km/h 9.3 km/h 63 % 0.0 mm
11:01 18.7 °C 11.3 °C 1002.9 hPa SW 9.3 km/h 9.3 km/h 62 % 0.0 mm
11:06 19.0 °C 11.3 °C 1003.9 hPa SW 16.1 km/h 16.1 km/h 61 % 0.0 mm
11:11 19.3 °C 11.3 °C 1003.9 hPa WSW 11.1 km/h 11.1 km/h 60 % 0.0 mm
11:16 19.6 °C 11.4 °C 1003.9 hPa WSW 11.1 km/h 11.1 km/h 59 % 0.0 mm
11:21 19.7 °C 10.7 °C 1003.9 hPa WSW 11.1 km/h 11.1 km/h 56 % 0.0 mm
11:26 19.9 °C 10.3 °C 1003.9 hPa West 16.7 km/h 16.7 km/h 54 % 0.0 mm
11:31 19.8 °C 10.2 °C 1003.9 hPa West 9.3 km/h 9.3 km/h 54 % 0.0 mm
11:36 19.9 °C 10.6 °C 1003.9 hPa West 13.0 km/h 13.0 km/h 55 % 0.0 mm
11:41 20.2 °C 10.9 °C 1003.9 hPa North 3.7 km/h 3.9 km/h 55 % 0.0 mm
11:46 20.2 °C 10.9 °C 1003.9 hPa SW 9.3 km/h 9.3 km/h 55 % 0.0 mm
11:51 20.5 °C 11.2 °C 1003.9 hPa WSW 5.6 km/h 5.6 km/h 55 % 0.0 mm
11:56 20.6 °C 11.2 °C 1003.9 hPa WSW 5.6 km/h 5.6 km/h 55 % 0.0 mm
12:01 20.9 °C 11.2 °C 1003.9 hPa WNW 9.3 km/h 9.3 km/h 54 % 0.0 mm
12:06 20.8 °C 10.9 °C 1003.9 hPa West 5.6 km/h 5.6 km/h 53 % 0.0 mm
12:11 20.8 °C 10.6 °C 1003.9 hPa West 3.7 km/h 4.2 km/h 52 % 0.0 mm
12:16 20.9 °C 10.7 °C 1003.9 hPa NNW 7.4 km/h 7.4 km/h 52 % 0.0 mm
12:21 20.7 °C 10.2 °C 1002.9 hPa SW 7.4 km/h 7.4 km/h 51 % 0.0 mm
12:26 20.8 °C 10.0 °C 1002.9 hPa WNW 9.3 km/h 9.3 km/h 50 % 0.0 mm
12:36 20.7 °C 10.2 °C 1002.9 hPa SW 5.6 km/h 5.6 km/h 51 % 0.0 mm
12:41 20.7 °C 9.9 °C 1002.9 hPa WSW 5.6 km/h 5.6 km/h 50 % 0.0 mm
12:46 20.8 °C 10.0 °C 1002.9 hPa WSW 5.0 km/h 6.4 km/h 50 % 0.0 mm
12:51 20.7 °C 9.9 °C 1002.9 hPa SW 7.4 km/h 7.4 km/h 50 % 0.0 mm
12:56 20.8 °C 10.0 °C 1002.9 hPa WSW 9.3 km/h 9.3 km/h 50 % 0.0 mm
13:02 21.2 °C 9.7 °C 1002.9 hPa WSW 9.0 km/h 9.0 km/h 48 % 0.0 mm
13:07 21.4 °C 9.9 °C 1001.9 hPa SW 5.6 km/h 5.6 km/h 48 % 0.0 mm
13:12 21.4 °C 9.9 °C 1001.9 hPa NNW 9.5 km/h 9.5 km/h 48 % 0.0 mm
13:17 21.4 °C 9.6 °C 1001.9 hPa WSW 14.8 km/h 14.8 km/h 47 % 0.0 mm
13:22 21.7 °C 9.9 °C 1001.9 hPa WSW 9.5 km/h 9.5 km/h 47 % 0.0 mm
13:27 21.8 °C 9.3 °C 1001.9 hPa SSE 18.5 km/h 18.5 km/h 45 % 0.0 mm
13:32 21.6 °C 8.8 °C 1001.9 hPa SW 14.8 km/h 14.8 km/h 44 % 0.0 mm
13:37 21.3 °C 8.6 °C 1001.9 hPa SW 13.0 km/h 13.0 km/h 44 % 0.0 mm
13:42 21.5 °C 8.7 °C 1001.9 hPa SW 11.1 km/h 11.1 km/h 44 % 0.0 mm
13:47 21.6 °C 8.8 °C 1001.9 hPa SW 9.5 km/h 9.5 km/h 44 % 0.0 mm
13:52 21.8 °C 9.0 °C 1001.9 hPa WSW 13.0 km/h 13.0 km/h 44 % 0.0 mm
13:57 21.8 °C 8.7 °C 1001.9 hPa SW 14.8 km/h 14.8 km/h 43 % 0.0 mm
14:02 21.6 °C 8.1 °C 1001.9 hPa SW 14.8 km/h 14.8 km/h 42 % 0.0 mm
14:07 21.8 °C 8.3 °C 1001.9 hPa West 11.1 km/h 11.1 km/h 42 % 0.0 mm
14:12 21.7 °C 8.2 °C 1001.9 hPa West 11.1 km/h 11.1 km/h 42 % 0.0 mm
14:17 21.8 °C 7.9 °C 1001.9 hPa West 11.1 km/h 11.1 km/h 41 % 0.0 mm
14:22 22.2 °C 8.7 °C 1001.9 hPa West 13.0 km/h 13.0 km/h 42 % 0.0 mm
14:27 22.2 °C 8.3 °C 1001.9 hPa West 19.5 km/h 19.5 km/h 41 % 0.0 mm
14:32 21.6 °C 8.1 °C 1001.9 hPa SSW 9.3 km/h 9.3 km/h 42 % 0.0 mm
14:37 21.9 °C 8.4 °C 1001.9 hPa West 11.1 km/h 11.1 km/h 42 % 0.0 mm
14:42 21.1 °C 8.0 °C 1001.9 hPa WSW 9.3 km/h 9.3 km/h 43 % 0.0 mm
14:47 20.9 °C 8.2 °C 1001.9 hPa WSW 9.3 km/h 9.3 km/h 44 % 0.0 mm
14:52 21.0 °C 8.3 °C 1001.9 hPa WSW 7.4 km/h 7.4 km/h 44 % 0.0 mm
14:57 20.9 °C 8.8 °C 1001.9 hPa WSW 5.6 km/h 5.8 km/h 46 % 0.0 mm
15:02 20.7 °C 8.7 °C 1001.9 hPa WSW 10.0 km/h 10.0 km/h 46 % 0.0 mm
15:07 20.9 °C 8.8 °C 1001.9 hPa West 3.9 km/h 3.9 km/h 46 % 0.0 mm
15:12 20.7 °C 9.0 °C 1001.9 hPa SSW 11.1 km/h 11.1 km/h 47 % 0.0 mm
15:17 20.8 °C 9.1 °C 1001.9 hPa West 11.1 km/h 11.1 km/h 47 % 0.0 mm
15:22 20.9 °C 9.2 °C 1001.9 hPa WSW 20.4 km/h 20.4 km/h 47 % 0.0 mm
15:27 20.8 °C 9.1 °C 1001.9 hPa WSW 13.0 km/h 13.0 km/h 47 % 0.0 mm
15:32 20.7 °C 9.0 °C 1001.9 hPa WNW 11.9 km/h 11.9 km/h 47 % 0.0 mm
15:37 20.7 °C 9.3 °C 1001.9 hPa WSW 5.6 km/h 5.6 km/h 48 % 0.0 mm
15:42 21.0 °C 9.3 °C 1001.9 hPa WNW 9.3 km/h 9.3 km/h 47 % 0.0 mm
15:47 21.3 °C 9.5 °C 1001.9 hPa WSW 6.1 km/h 6.1 km/h 47 % 0.0 mm
15:52 21.0 °C 8.9 °C 1001.9 hPa West 20.4 km/h 20.4 km/h 46 % 0.0 mm
15:57 21.2 °C 9.1 °C 1001.9 hPa West 27.8 km/h 27.8 km/h 46 % 0.0 mm
16:02 20.9 °C 9.2 °C 1001.9 hPa West 7.9 km/h 7.9 km/h 47 % 0.0 mm
16:07 20.8 °C 9.1 °C 1001.9 hPa SW 9.7 km/h 9.7 km/h 47 % 0.0 mm
16:12 21.0 °C 8.9 °C 1001.9 hPa WSW 11.4 km/h 11.4 km/h 46 % 0.0 mm
16:17 20.8 °C 9.1 °C 1001.9 hPa WSW 19.5 km/h 19.5 km/h 47 % 0.0 mm
16:22 20.9 °C 9.2 °C 1001.9 hPa WSW 9.3 km/h 9.3 km/h 47 % 0.0 mm
16:27 20.8 °C 8.8 °C 1001.9 hPa West 11.1 km/h 11.1 km/h 46 % 0.0 mm
16:32 21.2 °C 9.1 °C 1001.9 hPa SW 18.5 km/h 18.5 km/h 46 % 0.0 mm
16:37 21.3 °C 9.2 °C 1000.9 hPa WSW 10.0 km/h 10.0 km/h 46 % 0.0 mm
16:42 21.2 °C 9.1 °C 1000.9 hPa West 10.0 km/h 10.0 km/h 46 % 0.0 mm
16:47 21.2 °C 8.8 °C 1000.9 hPa NW 9.3 km/h 9.3 km/h 45 % 0.0 mm
16:52 21.5 °C 9.1 °C 1000.9 hPa WNW 13.0 km/h 13.0 km/h 45 % 0.0 mm
16:57 21.1 °C 8.4 °C 1000.9 hPa WNW 9.3 km/h 9.3 km/h 44 % 0.0 mm
17:02 21.2 °C 8.4 °C 1000.9 hPa West 9.3 km/h 9.3 km/h 44 % 0.0 mm
17:07 21.4 °C 8.6 °C 1000.9 hPa West 9.7 km/h 9.7 km/h 44 % 0.0 mm
17:12 21.5 °C 8.4 °C 1000.9 hPa WSW 9.7 km/h 9.7 km/h 43 % 0.0 mm
17:17 21.5 °C 8.1 °C 1000.9 hPa WSW 9.3 km/h 9.3 km/h 42 % 0.0 mm
17:27 21.4 °C 7.9 °C 1000.9 hPa SW 7.4 km/h 7.4 km/h 42 % 0.0 mm
17:32 21.2 °C 7.8 °C 1000.9 hPa WSW 11.9 km/h 11.9 km/h 42 % 0.0 mm
17:37 20.8 °C 7.8 °C 1000.9 hPa WSW 11.1 km/h 11.1 km/h 43 % 0.0 mm
17:42 20.6 °C 7.6 °C 1000.9 hPa WSW 7.4 km/h 7.4 km/h 43 % 0.0 mm
17:47 20.3 °C 7.3 °C 1000.9 hPa WSW 7.4 km/h 7.4 km/h 43 % 0.0 mm
17:52 20.2 °C 7.2 °C 1000.9 hPa SW 17.2 km/h 17.2 km/h 43 % 0.0 mm
17:57 20.1 °C 7.1 °C 1000.9 hPa West 6.9 km/h 6.9 km/h 43 % 0.0 mm
18:02 20.0 °C 7.1 °C 1000.9 hPa WSW 5.6 km/h 5.6 km/h 43 % 0.0 mm
18:07 19.9 °C 6.9 °C 1000.9 hPa West 5.0 km/h 5.0 km/h 43 % 0.0 mm
18:17 19.8 °C 6.8 °C 1000.9 hPa WSW 13.0 km/h 13.0 km/h 43 % 0.0 mm
18:22 19.8 °C 6.8 °C 1000.9 hPa SW 12.2 km/h 12.2 km/h 43 % 0.0 mm
18:27 19.7 °C 6.8 °C 1000.9 hPa SW 9.3 km/h 9.3 km/h 43 % 0.0 mm
18:32 19.7 °C 6.8 °C 1000.9 hPa WSW 10.0 km/h 10.0 km/h 43 % 0.0 mm
18:37 19.6 °C 6.7 °C 1000.9 hPa SW 10.0 km/h 10.0 km/h 43 % 0.0 mm
18:42 19.6 °C 6.7 °C 1000.9 hPa West 9.5 km/h 9.5 km/h 43 % 0.0 mm
18:47 19.5 °C 6.6 °C 1000.9 hPa WSW 11.1 km/h 11.1 km/h 43 % 0.0 mm
18:52 19.5 °C 6.6 °C 1000.9 hPa West 9.3 km/h 9.3 km/h 43 % 0.0 mm
18:57 19.6 °C 6.7 °C 1000.9 hPa SW 11.1 km/h 11.1 km/h 43 % 0.0 mm
19:02 19.5 °C 6.6 °C 1000.9 hPa WSW 11.1 km/h 11.1 km/h 43 % 0.0 mm
19:07 19.5 °C 6.6 °C 1000.9 hPa WSW 9.0 km/h 9.0 km/h 43 % 0.0 mm
19:12 19.3 °C 6.7 °C 1000.9 hPa WSW 16.7 km/h 16.7 km/h 44 % 0.0 mm
19:17 19.0 °C 6.8 °C 1000.9 hPa WSW 20.4 km/h 20.4 km/h 45 % 0.0 mm
19:22 18.7 °C 6.8 °C 1001.9 hPa WSW 19.0 km/h 19.0 km/h 46 % 0.0 mm
19:27 18.4 °C 6.9 °C 1001.9 hPa WNW 9.3 km/h 9.3 km/h 47 % 0.0 mm
19:32 18.1 °C 6.9 °C 1001.9 hPa WSW 11.1 km/h 11.1 km/h 48 % 0.0 mm
19:37 18.0 °C 7.1 °C 1001.9 hPa West 12.6 km/h 12.6 km/h 49 % 0.0 mm
19:42 17.7 °C 6.8 °C 1001.9 hPa West 9.3 km/h 9.3 km/h 49 % 0.0 mm
19:47 17.4 °C 6.9 °C 1001.9 hPa West 9.3 km/h 9.3 km/h 50 % 0.0 mm
19:52 17.2 °C 6.7 °C 1001.9 hPa WSW 9.3 km/h 9.3 km/h 50 % 0.0 mm
19:57 17.1 °C 6.6 °C 1001.9 hPa SW 11.1 km/h 11.1 km/h 50 % 0.0 mm
20:02 17.0 °C 7.1 °C 1001.9 hPa SW 9.3 km/h 9.3 km/h 52 % 0.0 mm
20:07 16.7 °C 7.6 °C 1001.9 hPa WNW 9.3 km/h 9.3 km/h 55 % 0.0 mm
20:12 16.5 °C 7.7 °C 1001.9 hPa WSW 9.3 km/h 9.3 km/h 56 % 0.0 mm
20:17 16.4 °C 7.8 °C 1001.9 hPa South 5.6 km/h 5.6 km/h 57 % 0.0 mm
20:22 16.2 °C 7.7 °C 1000.9 hPa WSW 3.2 km/h 3.2 km/h 57 % 0.0 mm
20:27 16.1 °C 7.6 °C 1000.9 hPa WSW 5.6 km/h 5.6 km/h 57 % 0.0 mm
20:32 16.0 °C 7.7 °C 1000.9 hPa WSW 5.6 km/h 5.6 km/h 58 % 0.0 mm
20:37 16.0 °C 7.7 °C 1000.9 hPa WSW 4.7 km/h 4.7 km/h 58 % 0.0 mm
20:42 15.9 °C 7.9 °C 1000.9 hPa West 5.6 km/h 5.6 km/h 59 % 0.0 mm
20:47 15.9 °C 7.9 °C 1000.9 hPa WNW 3.7 km/h 3.7 km/h 59 % 0.0 mm
20:52 15.9 °C 7.9 °C 999.9 hPa West 5.8 km/h 5.8 km/h 59 % 0.0 mm
20:57 15.9 °C 8.2 °C 999.9 hPa WNW 5.6 km/h 5.6 km/h 60 % 0.0 mm
21:02 15.9 °C 8.4 °C 999.9 hPa WSW 5.6 km/h 5.6 km/h 61 % 0.0 mm
21:07 15.8 °C 8.3 °C 1000.9 hPa WSW 7.6 km/h 7.6 km/h 61 % 0.0 mm
21:12 15.7 °C 8.4 °C 1000.9 hPa SW 5.6 km/h 5.6 km/h 62 % 0.0 mm
21:17 15.7 °C 8.4 °C 1000.9 hPa West 7.4 km/h 7.4 km/h 62 % 0.0 mm
21:22 15.7 °C 8.4 °C 999.9 hPa WSW 5.6 km/h 5.6 km/h 62 % 0.0 mm
21:27 15.6 °C 8.6 °C 999.9 hPa SW 7.6 km/h 7.6 km/h 63 % 0.0 mm
21:32 15.5 °C 8.9 °C 999.9 hPa SW 9.3 km/h 9.3 km/h 65 % 0.0 mm
21:37 15.2 °C 8.9 °C 997.9 hPa SW 9.3 km/h 9.3 km/h 66 % 0.0 mm
21:42 15.1 °C 8.8 °C 997.9 hPa SSW 4.7 km/h 4.7 km/h 66 % 0.0 mm
21:47 15.0 °C 8.9 °C 997.9 hPa SSW 5.6 km/h 5.6 km/h 67 % 0.0 mm
21:52 15.0 °C 8.9 °C 999.9 hPa West 9.7 km/h 9.7 km/h 67 % 0.0 mm
21:57 15.0 °C 8.9 °C 999.9 hPa West 4.2 km/h 4.2 km/h 67 % 0.0 mm
22:07 15.0 °C 8.9 °C 998.9 hPa West 5.6 km/h 5.6 km/h 67 % 0.0 mm
22:12 15.0 °C 9.1 °C 998.9 hPa WSW 3.7 km/h 3.7 km/h 68 % 0.0 mm
22:17 14.8 °C 9.2 °C 998.9 hPa WSW 3.7 km/h 3.7 km/h 69 % 0.0 mm
22:22 14.7 °C 9.1 °C 998.9 hPa WSW 3.7 km/h 3.7 km/h 69 % 0.0 mm
22:27 14.6 °C 9.0 °C 998.9 hPa WSW 1.9 km/h   69 % 0.0 mm
22:32 14.6 °C 9.2 °C 998.9 hPa SW 1.9 km/h   70 % 0.0 mm
22:37 14.5 °C 8.9 °C 997.9 hPa West 3.7 km/h 3.7 km/h 69 % 0.0 mm
22:42 14.5 °C 9.1 °C 997.9 hPa SW 3.7 km/h 3.7 km/h 70 % 0.0 mm
22:52 13.8 °C 9.1 °C 998.9 hPa WSW 5.6 km/h 5.6 km/h 73 % 0.0 mm
22:57 12.9 °C 8.8 °C 998.9 hPa WSW 5.6 km/h 5.6 km/h 76 % 0.0 mm
23:02 12.6 °C 8.7 °C 998.9 hPa WNW 3.7 km/h 4.7 km/h 77 % 0.0 mm
23:07 12.2 °C 8.3 °C 998.9 hPa WNW 3.7 km/h 4.7 km/h 77 % 0.0 mm
23:12 12.0 °C 8.1 °C 998.9 hPa SW 4.7 km/h 4.7 km/h 77 % 3.0 mm
Meteo Sesrovires
Elogis d' Weather Underground - 3.25 mb

Guio original per  Jim McMurry - jmcmurry@mwt.net Adaptat per a la plantilla per  Wim van der Kuil - Leuven-Template.eu

Trobareu la nostra informacio del temps tambe a:

Weather Underground

AWEKAS